Casselton, North Dakota
Current Conditions -  °F | °C
As of 8:53 AM on Saturday 25 Oct 2014 (Local Time) from KFAR Reporting Station
Clear Clear  
Wind Chill: 37°   Ceiling: Unl
Heat Index: 43°   Visibility: 10mi
Dew Point: 32°   Wind: 12mph
Humidity: 65%   Direction: 280°W
Pressure: 30.08"   Gusts: NA
Location:  46.9°N, 97.21°W
Report Text: KFAR 251353Z AUTO 28010KT 10SM CLR 06/00 A3008 RMK AO2 SLP191 T00610000 TSNO $
Loading
Personal Weather Stations






























Interactive Weather Map
Tropical Storm Tracking
New forecast layout! Learn more

10-Day Weather Forecast

Advertisements
Track Severe Weather on mobile